aviador You're here:

RPLB Decoded Metar

OLONGAPO/SUBIC in PHILIPPINES
Report Time2018-02-18 17:00:00
UTC Time2018-02-18 17:50:27
Flight Rules vfr VFR
WindVRB at 03 kt
Visibility9999 m
Phenomena:N/A
Clouds:Few 020 Hf
Expected CloudBase > 1,600 ft AGL from Temp-Dew spread
CeilingNone
Temp25°C (ISA +10)
Dew Point21°C (79% RH)
QNH1013 hPa
Density Alt1,555 ft
Elevation56 ft
Report Wrong Elevation
Raw Report
METAR RPLB 181700Z VRB03KT 9999 FEW020 25/21 Q1013 NOSIG RMK A2991=

Extra information for RPLB:More info

Metar Taf Metar & Taf Last 4 Metars F.Rules Stats Wind Profile Meteogram Temp Stats Airport Information Weather charts Add Link Nearby VenuesMetar ALERT Operation Metar Decoded Social comments